createdAt,value
2022-09-17T00:01:20.687Z,96401.20
2022-09-17T00:09:53.646Z,96390.73
2022-09-17T00:12:22.130Z,96391.31
2022-09-17T00:14:52.287Z,96388.79
2022-09-17T00:17:20.109Z,96393.66
2022-09-17T00:19:49.410Z,96395.78
2022-09-17T00:22:17.309Z,96390.36
2022-09-17T00:24:45.143Z,96390.14
2022-09-17T00:27:13.113Z,96396.36
2022-09-17T00:29:40.998Z,96382.59
2022-09-17T00:32:09.513Z,96382.02
2022-09-17T00:34:37.281Z,96370.98
2022-09-17T00:37:04.894Z,96372.16
2022-09-17T00:39:33.255Z,96371.96
2022-09-17T00:42:02.968Z,96374.45
2022-09-17T00:45:04.226Z,96364.97
2022-09-17T00:48:10.873Z,96358.01
2022-09-17T00:51:06.357Z,96356.26
2022-09-17T01:03:06.477Z,96358.77
2022-09-17T01:05:50.037Z,96362.25
2022-09-17T01:08:26.369Z,96356.05
2022-09-17T01:11:21.429Z,96354.89
2022-09-17T01:14:12.510Z,96358.59
2022-09-17T01:20:49.380Z,96356.84
2022-09-17T01:24:00.213Z,96358.20
2022-09-17T01:47:32.269Z,96377.20
2022-09-17T01:50:38.767Z,96378.00
2022-09-17T01:53:17.931Z,96375.08
2022-09-17T02:20:54.682Z,96359.85
2022-09-17T02:23:30.346Z,96361.78
2022-09-17T02:33:30.316Z,96345.72
2022-09-17T02:39:41.411Z,96340.31
2022-09-17T02:46:02.806Z,96340.89
2022-09-17T02:49:12.087Z,96342.63
2022-09-17T03:02:38.479Z,96324.24
2022-09-17T03:05:15.827Z,96318.23
2022-09-17T03:29:25.746Z,96309.65
2022-09-17T03:32:13.040Z,96298.58
2022-09-17T03:34:40.327Z,96301.07
2022-09-17T03:37:07.458Z,96296.05
2022-09-17T03:39:34.703Z,96288.11
2022-09-17T03:42:02.108Z,96298.19
2022-09-17T03:44:29.388Z,96294.72
2022-09-17T03:46:56.814Z,96286.20
2022-09-17T03:49:26.024Z,96285.25
2022-09-17T03:51:53.543Z,96285.80
2022-09-17T03:54:20.873Z,96278.27
2022-09-17T03:56:47.878Z,96285.80
2022-09-17T03:59:15.140Z,96282.33
2022-09-17T04:01:42.546Z,96284.09
2022-09-17T04:04:10.109Z,96279.03
2022-09-17T04:06:37.289Z,96276.91
2022-09-17T04:09:04.932Z,96273.23
2022-09-17T04:11:32.006Z,96271.48
2022-09-17T04:13:59.364Z,96275.38
2022-09-17T04:16:26.587Z,96272.48
2022-09-17T04:18:53.889Z,96279.05
2022-09-17T04:21:21.052Z,96275.58
2022-09-17T04:23:48.215Z,96282.18
2022-09-17T04:26:15.508Z,96279.66
2022-09-17T04:28:43.386Z,96273.47
2022-09-17T04:31:14.377Z,96276.95
2022-09-17T04:33:42.818Z,96287.79
2022-09-17T04:36:10.172Z,96285.08
2022-09-17T04:38:37.326Z,96283.34
2022-09-17T04:41:06.772Z,96299.21
2022-09-17T04:43:34.604Z,96294.55
2022-09-17T04:46:05.015Z,96288.16
2022-09-17T04:48:32.392Z,96296.29
2022-09-17T04:51:01.463Z,96296.87
2022-09-17T04:53:28.856Z,96297.23
2022-09-17T04:55:56.731Z,96298.19
2022-09-17T04:58:25.996Z,96294.09
2022-09-17T05:00:53.288Z,96299.88
2022-09-17T05:03:20.657Z,96297.92
2022-09-17T05:05:47.910Z,96294.63
2022-09-17T05:08:15.077Z,96291.13
2022-09-17T05:10:42.614Z,96288.21
2022-09-17T05:13:10.060Z,96288.61
2022-09-17T05:15:37.388Z,96292.84
2022-09-17T05:18:04.823Z,96294.34
2022-09-17T05:20:32.215Z,96292.55
2022-09-17T05:22:59.476Z,96297.68
2022-09-17T05:25:27.033Z,96303.03
2022-09-17T05:27:55.865Z,96309.91
2022-09-17T05:30:24.317Z,96307.36
2022-09-17T05:33:00.951Z,96312.69
2022-09-17T05:35:48.238Z,96302.36
2022-09-17T05:38:17.656Z,96296.70
2022-09-17T05:40:45.520Z,96288.75
2022-09-17T05:43:12.566Z,96299.52
2022-09-17T05:45:40.046Z,96297.71
2022-09-17T05:48:09.972Z,96296.69
2022-09-17T05:50:37.430Z,96296.08
2022-09-17T05:53:06.341Z,96299.36
2022-09-17T05:55:36.586Z,96292.44
2022-09-17T05:58:18.837Z,96291.28
2022-09-17T06:00:48.437Z,96294.40
2022-09-17T06:03:17.786Z,96300.41
2022-09-17T06:05:53.494Z,96298.30
2022-09-17T06:08:20.684Z,96310.71
2022-09-17T06:10:48.687Z,96316.15
2022-09-17T06:13:20.706Z,96321.01
2022-09-17T06:15:51.739Z,96310.58
2022-09-17T06:18:21.079Z,96317.38
2022-09-17T06:21:00.345Z,96324.94
2022-09-17T06:23:36.466Z,96327.06
2022-09-17T06:26:05.372Z,96332.69
2022-09-17T06:28:35.792Z,96340.64
2022-09-17T06:31:04.258Z,96344.70
2022-09-17T06:33:32.358Z,96333.84
2022-09-17T06:36:02.555Z,96323.23
2022-09-17T06:38:32.135Z,96313.18
2022-09-17T06:40:59.606Z,96307.80
2022-09-17T06:43:27.375Z,96303.22
2022-09-17T06:45:58.322Z,96305.73
2022-09-17T06:48:31.917Z,96292.81
2022-09-17T06:51:04.722Z,96288.97
2022-09-17T06:53:32.109Z,96290.34
2022-09-17T06:56:05.208Z,96283.25
2022-09-17T06:58:33.657Z,96283.84
2022-09-17T07:01:02.084Z,96280.59
2022-09-17T07:03:31.049Z,96278.07
2022-09-17T07:05:59.044Z,96280.44
2022-09-17T07:08:27.239Z,96268.47
2022-09-17T07:10:58.329Z,96271.01
2022-09-17T07:13:25.843Z,96262.89
2022-09-17T07:15:55.879Z,96261.91
2022-09-17T07:18:23.886Z,96261.55
2022-09-17T07:20:55.507Z,96258.89
2022-09-17T07:23:23.832Z,96251.17
2022-09-17T07:25:55.939Z,96252.35
2022-09-17T07:28:25.931Z,96252.95
2022-09-17T07:30:55.414Z,96252.00
2022-09-17T07:33:27.635Z,96251.61
2022-09-17T07:35:57.323Z,96250.08
2022-09-17T07:38:25.857Z,96249.33
2022-09-17T07:41:02.211Z,96251.83
2022-09-17T07:43:31.788Z,96250.13
2022-09-17T07:46:00.298Z,96248.78
2022-09-17T07:48:28.553Z,96257.88
2022-09-17T07:50:56.870Z,96254.04
2022-09-17T07:53:24.791Z,96252.88
2022-09-17T07:55:59.538Z,96254.05
2022-09-17T07:58:33.443Z,96254.61
2022-09-17T08:01:04.829Z,96251.53
2022-09-17T08:03:33.004Z,96244.16
2022-09-17T08:06:08.993Z,96243.76
2022-09-17T08:08:37.283Z,96236.20
2022-09-17T08:11:23.697Z,96224.20
2022-09-17T08:13:47.675Z,96215.29
2022-09-17T08:16:15.589Z,96206.02
2022-09-17T08:18:43.394Z,96197.31
2022-09-17T08:21:13.894Z,96190.14
2022-09-17T08:23:42.375Z,96182.80
2022-09-17T08:26:15.171Z,96182.80
2022-09-17T08:28:47.535Z,96179.14
2022-09-17T08:31:16.873Z,96184.74
2022-09-17T08:33:44.954Z,96182.03
2022-09-17T08:36:13.446Z,96189.39
2022-09-17T08:38:41.126Z,96184.38
2022-09-17T08:41:24.282Z,96178.20
2022-09-17T08:44:14.912Z,96178.21
2022-09-17T08:46:50.866Z,96183.64
2022-09-17T08:49:24.736Z,96175.52
2022-09-17T08:52:10.710Z,96169.52
2022-09-17T08:54:50.594Z,96175.91
2022-09-17T08:57:42.803Z,96185.39
2022-09-17T09:00:16.714Z,96186.75
2022-09-17T09:03:21.332Z,96184.45
2022-09-17T09:05:55.897Z,96180.39
2022-09-17T09:08:29.690Z,96179.99
2022-09-17T09:11:03.503Z,96179.22
2022-09-17T09:13:33.874Z,96167.03
2022-09-17T09:16:25.622Z,96160.66
2022-09-17T09:18:55.213Z,96155.81
2022-09-17T09:21:30.428Z,96147.69
2022-09-17T09:24:07.405Z,96145.74
2022-09-17T09:26:44.698Z,96144.97
2022-09-17T09:29:42.094Z,96132.00
2022-09-17T09:32:25.028Z,96131.41
2022-09-17T09:34:54.312Z,96128.70
2022-09-17T09:37:33.856Z,96136.23
2022-09-17T09:40:05.023Z,96149.59
2022-09-17T09:42:34.480Z,96162.38
2022-09-17T09:45:08.147Z,96168.16
2022-09-17T09:47:39.817Z,96174.58
2022-09-17T09:50:38.376Z,96180.95
2022-09-17T09:53:16.919Z,96192.00
2022-09-17T09:55:50.819Z,96197.83
2022-09-17T09:58:30.690Z,96202.67
2022-09-17T10:01:00.908Z,96198.41
2022-09-17T10:03:38.118Z,96209.45
2022-09-17T10:06:09.245Z,96203.84
2022-09-17T10:08:41.723Z,96213.70
2022-09-17T10:11:12.558Z,96206.56
2022-09-17T10:13:40.335Z,96210.41
2022-09-17T10:16:19.962Z,96209.28
2022-09-17T10:18:48.859Z,96201.52
2022-09-17T10:21:31.526Z,96210.83
2022-09-17T10:24:00.129Z,96211.02
2022-09-17T10:26:29.788Z,96211.41
2022-09-17T10:28:59.467Z,96210.83
2022-09-17T10:31:52.203Z,96217.61
2022-09-17T10:34:22.024Z,96224.58
2022-09-17T10:36:49.393Z,96234.66
2022-09-17T10:39:37.982Z,96234.22
2022-09-17T10:42:08.579Z,96231.91
2022-09-17T10:44:36.850Z,96237.33
2022-09-17T10:47:22.168Z,96234.44
2022-09-17T10:49:53.061Z,96237.52
2022-09-17T10:52:32.304Z,96232.09
2022-09-17T10:55:16.091Z,96227.44
2022-09-17T10:57:58.936Z,96225.53
2022-09-17T11:00:55.658Z,96225.53
2022-09-17T11:03:43.900Z,96228.80
2022-09-17T11:06:32.896Z,96221.25
2022-09-17T11:09:19.089Z,96225.94
2022-09-17T11:11:58.952Z,96231.17
2022-09-17T11:14:42.082Z,96240.08
2022-09-17T11:17:31.495Z,96239.89
2022-09-17T11:20:04.605Z,96241.06
2022-09-17T11:22:41.802Z,96241.43
2022-09-17T11:25:35.616Z,96240.08
2022-09-17T11:28:29.577Z,96239.30
2022-09-17T11:31:23.252Z,96240.26
2022-09-17T11:33:53.638Z,96234.28
2022-09-17T11:36:24.489Z,96234.06
2022-09-17T11:38:53.239Z,96237.95
2022-09-17T11:41:24.171Z,96236.99
2022-09-17T11:44:07.018Z,96231.56
2022-09-17T11:46:46.427Z,96233.29
2022-09-17T11:49:17.402Z,96219.72
2022-09-17T11:51:50.473Z,96224.55
2022-09-17T11:54:27.667Z,96206.37
2022-09-17T11:57:09.766Z,96220.28
2022-09-17T12:00:03.644Z,96221.83
2022-09-17T12:02:51.317Z,96222.82
2022-09-17T12:05:28.562Z,96212.56
2022-09-17T12:07:59.608Z,96216.05
2022-09-17T12:10:45.302Z,96194.34
2022-09-17T12:13:28.608Z,96190.63
2022-09-17T12:16:17.743Z,96203.81
2022-09-17T12:18:52.233Z,96201.67
2022-09-17T12:21:22.819Z,96191.40
2022-09-17T12:23:59.576Z,96191.19
2022-09-17T12:26:30.449Z,96190.82
2022-09-17T12:29:10.051Z,96190.05
2022-09-17T12:31:59.246Z,96187.69
2022-09-17T12:34:39.561Z,96183.63
2022-09-17T12:37:19.125Z,96183.02
2022-09-17T12:39:52.601Z,96184.98
2022-09-17T12:42:44.829Z,96191.75
2022-09-17T12:45:17.150Z,96192.73
2022-09-17T12:48:15.376Z,96195.05
2022-09-17T12:50:46.090Z,96185.16
2022-09-17T12:53:29.637Z,96188.88
2022-09-17T12:56:28.076Z,96195.27
2022-09-17T12:59:03.753Z,96190.63
2022-09-17T13:01:49.982Z,96187.92
2022-09-17T13:05:02.509Z,96190.86
2022-09-17T13:07:32.025Z,96183.10
2022-09-17T13:10:43.420Z,96189.70
2022-09-17T13:13:40.372Z,96174.02
2022-09-17T13:16:23.349Z,96169.95
2022-09-17T13:19:15.712Z,96161.42
2022-09-17T13:21:36.043Z,96156.77
2022-09-17T13:24:25.587Z,96155.42
2022-09-17T13:26:54.137Z,96158.14
2022-09-17T13:29:47.666Z,96161.02
2022-09-17T13:32:38.854Z,96159.66
2022-09-17T13:35:15.883Z,96156.59
2022-09-17T13:37:56.466Z,96162.96
2022-09-17T13:40:30.417Z,96159.66
2022-09-17T13:43:13.359Z,96162.38
2022-09-17T13:46:04.235Z,96157.36
2022-09-17T13:48:33.580Z,96158.89
2022-09-17T13:51:33.807Z,96170.51
2022-09-17T13:54:06.818Z,96175.16
2022-09-17T13:56:45.432Z,96168.56
2022-09-17T13:59:24.703Z,96166.66
2022-09-17T14:02:20.136Z,96161.79
2022-09-17T14:04:50.332Z,96156.59
2022-09-17T14:07:27.313Z,96146.11
2022-09-17T14:10:18.582Z,96149.99
2022-09-17T14:12:55.546Z,96141.09
2022-09-17T14:15:41.432Z,96131.42
2022-09-17T14:18:34.466Z,96129.48
2022-09-17T14:21:08.925Z,96135.08
2022-09-17T14:23:48.615Z,96136.04
2022-09-17T14:26:25.592Z,96137.98
2022-09-17T14:28:57.808Z,96139.55
2022-09-17T14:31:29.725Z,96137.03
2022-09-17T14:33:57.951Z,96134.91
2022-09-17T14:36:25.536Z,96124.84
2022-09-17T14:38:54.709Z,96130.25
2022-09-17T14:41:28.558Z,96129.48
2022-09-17T14:44:01.637Z,96120.19
2022-09-17T14:46:49.375Z,96113.02
2022-09-17T14:49:26.542Z,96115.16
2022-09-17T14:51:55.531Z,96123.66
2022-09-17T14:54:35.142Z,96119.59
2022-09-17T14:57:12.475Z,96114.77
2022-09-17T14:59:51.784Z,96115.94
2022-09-17T15:02:37.171Z,96102.94
2022-09-17T15:05:26.209Z,96100.63
2022-09-17T15:08:14.258Z,96100.81
2022-09-17T15:10:59.630Z,96097.55
2022-09-17T15:13:29.797Z,96084.37
2022-09-17T15:16:00.541Z,96092.10
2022-09-17T15:18:34.320Z,96097.73
2022-09-17T15:21:06.765Z,96105.68
2022-09-17T15:23:34.614Z,96089.61
2022-09-17T15:26:02.776Z,96088.63
2022-09-17T15:28:39.597Z,96093.27
2022-09-17T15:31:18.701Z,96102.97
2022-09-17T15:33:46.926Z,96098.32
2022-09-17T15:36:27.024Z,96093.85
2022-09-17T15:38:54.904Z,96085.14
2022-09-17T15:41:35.733Z,96087.08
2022-09-17T15:44:32.062Z,96079.34
2022-09-17T15:46:55.809Z,96074.88
2022-09-17T15:49:31.585Z,96070.81
2022-09-17T15:52:29.153Z,96056.09
2022-09-17T15:54:57.883Z,96052.03
2022-09-17T15:57:26.475Z,96041.19
2022-09-17T15:59:55.004Z,96034.42
2022-09-17T16:02:30.630Z,96029.98
2022-09-17T16:05:17.504Z,96015.47
2022-09-17T16:07:45.650Z,96013.75
2022-09-17T16:10:14.833Z,96011.81
2022-09-17T16:12:42.204Z,96011.23
2022-09-17T16:15:09.899Z,96013.35
2022-09-17T16:17:43.158Z,96009.47
2022-09-17T16:20:23.076Z,96010.83
2022-09-17T16:22:54.751Z,96015.11
2022-09-17T16:25:26.500Z,96011.83
2022-09-17T16:28:04.412Z,96014.91
2022-09-17T16:30:31.998Z,96008.13
2022-09-17T16:33:01.311Z,96004.86
2022-09-17T16:35:28.620Z,95995.39
2022-09-17T16:37:58.593Z,95998.28
2022-09-17T16:40:28.455Z,95987.82
2022-09-17T16:42:56.556Z,95966.38
2022-09-17T16:45:28.818Z,95961.54
2022-09-17T16:47:54.297Z,95948.38
2022-09-17T16:50:22.672Z,95948.38
2022-09-17T16:52:50.025Z,95943.15
2022-09-17T16:55:18.565Z,95958.45
2022-09-17T16:57:45.782Z,95957.86
2022-09-17T17:00:18.347Z,95962.11
2022-09-17T17:02:54.799Z,95965.41
2022-09-17T17:05:23.915Z,95959.41
2022-09-17T17:07:51.945Z,95958.27
2022-09-17T17:10:19.821Z,95956.91
2022-09-17T17:12:47.244Z,95952.84
2022-09-17T17:15:14.598Z,95946.27
2022-09-17T17:17:41.532Z,95942.02
2022-09-17T17:20:09.488Z,95945.09
2022-09-17T17:22:37.483Z,95939.09
2022-09-17T17:25:05.623Z,95931.73
2022-09-17T17:27:33.808Z,95930.59
2022-09-17T17:30:03.682Z,95928.66
2022-09-17T17:32:31.172Z,95918.41
2022-09-17T17:34:58.606Z,95917.05
2022-09-17T17:37:26.302Z,95925.77
2022-09-17T17:39:54.188Z,95933.88
2022-09-17T17:42:21.722Z,95940.84
2022-09-17T17:44:49.146Z,95946.63
2022-09-17T17:47:16.382Z,95954.96
2022-09-17T17:49:44.128Z,95964.62
2022-09-17T17:52:11.514Z,95959.39
2022-09-17T17:54:39.107Z,95958.03
2022-09-17T17:57:06.959Z,95940.64
2022-09-17T17:59:34.325Z,95924.77
2022-09-17T18:02:01.698Z,95926.72
2022-09-17T18:04:29.094Z,95927.89
2022-09-17T18:06:56.548Z,95931.73
2022-09-17T18:09:24.270Z,95946.45
2022-09-17T18:11:51.603Z,95942.97
2022-09-17T18:14:21.375Z,95931.95
2022-09-17T18:16:48.971Z,95921.89
2022-09-17T18:19:19.581Z,95920.91
2022-09-17T18:21:46.895Z,95920.14
2022-09-17T18:24:14.347Z,95924.02
2022-09-17T18:26:41.711Z,95907.78
2022-09-17T18:29:10.813Z,95892.13
2022-09-17T18:31:38.381Z,95866.42
2022-09-17T18:34:11.366Z,95859.84
2022-09-17T18:36:39.921Z,95854.59
2022-09-17T18:41:43.328Z,95855.37
2022-09-17T18:44:11.004Z,95851.72
2022-09-17T18:46:38.598Z,95854.61
2022-09-17T18:49:05.900Z,95855.59
2022-09-17T18:51:33.557Z,95847.84
2022-09-17T18:54:02.830Z,95836.25
2022-09-17T18:56:33.358Z,95844.18
2022-09-17T18:59:05.698Z,95839.13
2022-09-17T19:01:31.879Z,95824.25
2022-09-17T19:04:02.594Z,95801.06
2022-09-17T19:06:31.614Z,95788.31
2022-09-17T19:09:12.763Z,95782.54
2022-09-17T19:11:51.663Z,95786.38
2022-09-17T19:14:23.847Z,95779.25
2022-09-17T19:17:04.049Z,95766.09
2022-09-17T19:19:35.233Z,95766.68
2022-09-17T19:22:07.952Z,95763.21
2022-09-17T19:24:47.361Z,95755.68
2022-09-17T19:27:15.883Z,95759.73
2022-09-17T19:29:47.180Z,95750.64
2022-09-17T19:32:24.411Z,95749.88
2022-09-17T19:41:17.918Z,95758.20
2022-09-17T19:43:47.292Z,95762.45
2022-09-17T19:46:17.321Z,95761.28
2022-09-17T19:48:47.114Z,95758.97
2022-09-17T19:51:15.666Z,95755.68
2022-09-17T19:53:43.388Z,95753.73
2022-09-17T19:56:13.157Z,95749.09
2022-09-17T19:58:41.334Z,95758.75
2022-09-17T20:01:09.858Z,95755.67
2022-09-17T20:03:42.277Z,95767.44
2022-09-17T20:06:13.333Z,95771.71
2022-09-17T20:08:47.506Z,95775.37
2022-09-17T20:11:16.100Z,95769.77
2022-09-17T20:13:43.648Z,95775.36
2022-09-17T20:16:17.427Z,95774.19
2022-09-17T20:18:45.386Z,95764.72
2022-09-17T20:21:14.878Z,95752.17
2022-09-17T20:23:42.758Z,95750.23
2022-09-17T20:26:11.813Z,95749.06
2022-09-17T20:28:39.451Z,95751.39
2022-09-17T20:31:10.092Z,95753.52
2022-09-17T20:33:38.684Z,95758.16
2022-09-17T20:36:08.904Z,95751.19
2022-09-17T20:41:08.837Z,95725.14
2022-09-17T20:43:39.060Z,95726.50
2022-09-17T20:46:07.931Z,95721.47
2022-09-17T20:48:35.958Z,95727.46
2022-09-17T20:51:06.215Z,95722.45
2022-09-17T20:53:35.658Z,95717.63
2022-09-17T20:56:08.684Z,95712.40
2022-09-17T20:58:41.658Z,95706.98
2022-09-17T21:01:14.730Z,95714.52
2022-09-17T21:03:43.885Z,95716.28
2022-09-17T21:06:25.582Z,95711.42
2022-09-17T21:08:54.244Z,95712.01
2022-09-17T21:11:23.186Z,95711.05
2022-09-17T21:13:51.027Z,95695.59
2022-09-17T21:16:18.887Z,95675.89
2022-09-17T21:18:46.954Z,95678.59
2022-09-17T21:21:16.626Z,95685.94
2022-09-17T21:23:44.320Z,95686.13
2022-09-17T21:26:14.108Z,95684.38
2022-09-17T21:28:43.605Z,95685.37
2022-09-17T21:31:13.779Z,95669.52
2022-09-17T21:33:42.879Z,95658.14
2022-09-17T21:36:15.162Z,95649.63
2022-09-17T21:38:42.982Z,95646.16
2022-09-17T21:41:12.428Z,95630.30
2022-09-17T21:43:40.861Z,95630.12
2022-09-17T21:46:13.760Z,95646.75
2022-09-17T21:48:45.717Z,95664.13
2022-09-17T21:51:16.637Z,95665.47
2022-09-17T21:53:44.361Z,95664.92
2022-09-17T21:56:16.515Z,95653.12
2022-09-17T21:58:45.218Z,95662.59
2022-09-17T22:01:18.435Z,95640.77
2022-09-17T22:03:46.020Z,95628.42
2022-09-17T22:06:16.478Z,95624.73
2022-09-17T22:08:44.525Z,95619.15
2022-09-17T22:11:14.304Z,95624.34
2022-09-17T22:13:42.363Z,95624.93
2022-09-17T22:16:09.891Z,95634.98
2022-09-17T22:18:37.788Z,95606.77
2022-09-17T22:21:13.824Z,95602.92
2022-09-17T22:23:41.174Z,95599.63
2022-09-17T22:26:10.415Z,95608.52
2022-09-17T22:28:37.599Z,95622.03
2022-09-17T22:31:08.310Z,95638.44
2022-09-17T22:33:38.601Z,95640.19
2022-09-17T22:36:11.633Z,95618.56
2022-09-17T22:38:39.790Z,95651.97
2022-09-17T22:41:08.518Z,95651.98
2022-09-17T22:43:35.771Z,95627.47
2022-09-17T22:46:21.386Z,95622.84
2022-09-17T22:48:48.947Z,95651.63
2022-09-17T22:51:16.363Z,95724.42
2022-09-17T22:53:43.918Z,95681.56
2022-09-17T22:56:13.914Z,95661.88
2022-09-17T22:58:42.790Z,95654.94
2022-09-17T23:01:15.769Z,95649.13
2022-09-17T23:03:43.878Z,95651.06
2022-09-17T23:06:13.266Z,95644.31
2022-09-17T23:08:41.001Z,95637.92
2022-09-17T23:11:11.550Z,95646.42
2022-09-17T23:13:38.916Z,95652.99
2022-09-17T23:16:08.131Z,95650.29
2022-09-17T23:18:36.712Z,95650.87
2022-09-17T23:21:09.191Z,95668.80
2022-09-17T23:23:36.830Z,95682.33
2022-09-17T23:26:07.322Z,95690.06
2022-09-17T23:28:35.325Z,95688.31
2022-09-17T23:31:18.186Z,95679.25
2022-09-17T23:33:46.805Z,95675.38
2022-09-17T23:36:17.006Z,95680.20
2022-09-17T23:38:45.731Z,95691.79
2022-09-17T23:41:21.889Z,95690.44
2022-09-17T23:43:51.664Z,95687.73
2022-09-17T23:46:20.983Z,95692.77
2022-09-17T23:48:48.749Z,95705.89
2022-09-17T23:51:16.339Z,95712.64
2022-09-17T23:53:43.654Z,95716.89
2022-09-17T23:56:18.242Z,95714.95
2022-09-17T23:58:45.326Z,95724.23
